Time;durP1;ratioP1;P1;durP2;ratioP2;P2;SDS_P1;SDS_P2;PMS_P1;PMS_P2;Temp;Humidity;BMP_temperature;BMP_pressure;BME280_temperature;BME280_humidity;BME280_pressure;Samples;Min_cycle;Max_cycle;Signal;HPM_P1;HPM_P2
2023/12/04 00:00:57;;;;;;;21.95;8.90;;;;;;;-0.63;100.00;101202.88;5012255;28;20050;-89
2023/12/04 00:03:43;;;;;;;19.67;8.30;;;;;;;-0.55;100.00;101213.38;5015784;28;20042;-90
2023/12/04 00:06:17;;;;;;;19.77;7.65;;;;;;;-0.63;100.00;101206.31;5016526;28;20025;-89
2023/12/04 00:08:54;;;;;;;20.48;8.27;;;;;;;-0.70;100.00;101194.16;5015730;28;20113;-90
2023/12/04 00:17:17;;;;;;;24.67;11.07;;;;;;;-0.49;100.00;101206.81;5015409;28;20018;-89
2023/12/04 00:19:55;;;;;;;24.48;11.23;;;;;;;-0.56;100.00;101194.63;5015795;28;20025;-90
2023/12/04 00:22:20;;;;;;;22.13;9.65;;;;;;;-0.64;100.00;101185.84;5015105;28;20185;-90
2023/12/04 00:25:22;;;;;;;23.25;10.05;;;;;;;-0.68;100.00;101181.47;5014393;28;20133;-90
2023/12/04 00:27:50;;;;;;;24.42;10.77;;;;;;;-0.62;100.00;101185.09;5014464;28;20081;-89
2023/12/04 00:30:41;;;;;;;22.80;10.35;;;;;;;-0.53;100.00;101192.22;5014939;28;20025;-90
2023/12/04 00:33:08;;;;;;;23.77;11.38;;;;;;;-0.63;100.00;101177.41;5014679;28;20030;-90
2023/12/04 00:36:11;;;;;;;;;;;;;;;;;;;;;
2023/12/04 00:38:45;;;;;;;22.20;9.65;;;;;;;-0.65;100.00;101164.59;5013895;28;20378;-90
2023/12/04 00:41:11;;;;;;;22.38;9.43;;;;;;;-0.71;100.00;101161.81;5014474;28;20030;-90
2023/12/04 00:43:36;;;;;;;24.40;10.23;;;;;;;-0.65;100.00;101163.72;5014510;28;20025;-89
2023/12/04 00:46:20;;;;;;;22.33;9.55;;;;;;;-0.60;100.00;101168.97;5013775;28;20060;-91
2023/12/04 00:48:46;;;;;;;23.95;10.25;;;;;;;-0.68;100.00;101156.84;5013971;28;20057;-90
2023/12/04 00:51:23;;;;;;;23.80;10.45;;;;;;;-0.59;100.00;101169.06;5014671;28;20493;-90
2023/12/04 00:54:01;;;;;;;24.20;11.25;;;;;;;-0.69;100.00;101147.47;5014505;28;20022;-90
2023/12/04 00:56:39;;;;;;;22.42;9.93;;;;;;;-0.66;100.00;101152.66;5004176;28;20033;-91
2023/12/04 00:59:19;;;;;;;22.85;9.98;;;;;;;-0.75;100.00;101133.63;4994966;28;20034;-90
2023/12/04 01:05:46;;;;;;;21.67;8.63;;;;;;;-0.53;100.00;101163.31;5015974;28;20095;-89
2023/12/04 01:08:26;;;;;;;20.50;8.50;;;;;;;-0.59;100.00;101142.69;5015293;28;20541;-90
2023/12/04 01:10:51;;;;;;;19.60;8.55;;;;;;;-0.53;100.00;101153.97;5255417;23;20046;-90
2023/12/04 01:13:17;;;;;;;21.05;8.80;;;;;;;-0.52;100.00;101152.31;5015292;28;20032;-89
2023/12/04 01:15:42;;;;;;;21.33;9.00;;;;;;;-0.53;100.00;101148.88;5015263;28;20117;-89
2023/12/04 01:18:08;;;;;;;18.85;8.55;;;;;;;-0.54;100.00;101152.22;5014757;28;20053;-88
2023/12/04 01:20:34;;;;;;;20.65;8.45;;;;;;;-0.57;100.00;101144.50;5014911;28;20109;-90
2023/12/04 01:22:59;;;;;;;20.98;8.35;;;;;;;-0.53;100.00;101148.88;5015497;28;20116;-90
2023/12/04 01:25:27;;;;;;;20.77;8.52;;;;;;;-0.57;100.00;101134.28;5015213;28;20029;-89
2023/12/04 01:27:52;;;;;;;19.60;7.90;;;;;;;-0.47;100.00;101138.00;5013892;28;20030;-89
2023/12/04 01:30:18;;;;;;;19.27;8.30;;;;;;;-0.50;100.00;101137.91;5015167;28;20030;-89
2023/12/04 01:32:43;;;;;;;20.73;8.18;;;;;;;-0.51;100.00;101136.19;5014620;28;20101;-89
2023/12/04 01:35:08;;;;;;;19.55;7.57;;;;;;;-0.62;100.00;101118.81;5014184;28;20022;-90
2023/12/04 01:37:48;;;;;;;18.73;7.43;;;;;;;-0.58;100.00;101109.59;5014142;28;20145;-89
2023/12/04 01:40:18;;;;;;;24.65;9.60;;;;;;;-0.38;100.00;101128.13;5014379;28;20034;-89
2023/12/04 01:42:46;;;;;;;21.00;8.25;;;;;;;-0.59;100.00;101102.78;5014761;28;20053;-89
2023/12/04 01:45:20;;;;;;;20.85;8.45;;;;;;;-0.46;100.00;101129.56;5021377;23;20041;-89
2023/12/04 01:47:46;;;;;;;19.20;7.70;;;;;;;-0.54;100.00;101115.69;5014664;28;20042;-90
2023/12/04 01:50:17;;;;;;;20.48;8.35;;;;;;;-0.63;100.00;101096.72;5014365;28;20490;-89
2023/12/04 01:52:54;;;;;;;21.67;9.25;;;;;;;-0.45;100.00;101120.22;5014702;28;20026;-88
2023/12/04 01:55:37;;;;;;;22.55;9.32;;;;;;;-0.47;100.00;101117.59;5015197;28;20125;-89
2023/12/04 01:58:18;;;;;;;21.88;8.68;;;;;;;-0.64;100.00;101087.31;5014050;28;20030;-89
2023/12/04 02:00:59;;;;;;;19.70;7.70;;;;;;;-0.62;100.00;101083.13;5014248;28;20022;-89
2023/12/04 02:03:30;;;;;;;19.65;7.80;;;;;;;-0.58;100.00;101089.22;5017887;28;20109;-89
2023/12/04 02:06:03;;;;;;;19.33;7.80;;;;;;;-0.55;100.00;101093.53;5017613;28;20022;-89
2023/12/04 02:08:41;;;;;;;19.80;7.55;;;;;;;-0.49;100.00;101074.22;5017463;28;20029;-89
2023/12/04 02:11:41;;;;;;;21.02;8.45;;;;;;;-0.51;100.00;101069.91;5017102;28;20053;-89
2023/12/04 02:14:07;;;;;;;20.95;8.80;;;;;;;-0.39;100.00;101084.72;5017550;28;20108;-89
2023/12/04 02:16:40;;;;;;;20.02;8.18;;;;;;;-0.58;100.00;101056.06;5017293;28;20105;-89
2023/12/04 02:19:17;;;;;;;19.40;7.88;;;;;;;-0.52;100.00;101063.06;5018156;28;20038;-88
2023/12/04 02:21:46;;;;;;;18.48;7.45;;;;;;;-0.58;100.00;101050.09;5017833;28;20022;-89
2023/12/04 02:24:20;;;;;;;17.30;6.90;;;;;;;-0.57;100.00;101051.81;5018394;28;20030;-89
2023/12/04 02:27:08;;;;;;;16.98;6.38;;;;;;;-0.58;100.00;101050.97;5017504;28;20600;-89
2023/12/04 02:30:03;;;;;;;18.30;6.55;;;;;;;-0.50;100.00;101067.38;5016796;28;20029;-89
2023/12/04 02:32:57;;;;;;;16.60;6.22;;;;;;;-0.57;100.00;101051.81;5016052;28;20038;-89
2023/12/04 02:35:38;;;;;;;19.58;7.53;;;;;;;-0.58;100.00;101034.78;5016947;28;20025;-89
2023/12/04 02:38:03;;;;;;;20.05;8.35;;;;;;;-0.46;100.00;101047.94;5017049;28;20022;-89
2023/12/04 02:40:45;;;;;;;20.25;7.85;;;;;;;-0.60;100.00;101034.75;5016608;28;20391;-90
2023/12/04 02:43:17;;;;;;;18.58;7.80;;;;;;;-0.48;100.00;101044.47;5014500;28;20061;-90
2023/12/04 02:46:07;;;;;;;20.80;8.48;;;;;;;-0.40;100.00;101049.84;5018092;28;20045;-89
2023/12/04 02:48:47;;;;;;;20.15;7.68;;;;;;;-0.58;100.00;101020.38;5016944;28;20037;-89
2023/12/04 02:51:26;;;;;;;19.63;8.02;;;;;;;-0.48;100.00;101035.16;5017584;28;20022;-89
2023/12/04 02:53:54;;;;;;;20.38;8.35;;;;;;;-0.47;100.00;101026.69;5017155;28;20030;-89
2023/12/04 02:56:20;;;;;;;20.33;7.80;;;;;;;-0.49;100.00;101020.69;5017700;28;20022;-88
2023/12/04 02:59:00;;;;;;;19.35;7.88;;;;;;;-0.50;100.00;101010.41;5017397;28;20413;-89
2023/12/04 03:01:26;;;;;;;20.33;8.07;;;;;;;-0.56;100.00;101005.13;5017437;28;20026;-89
2023/12/04 03:04:10;;;;;;;20.15;8.07;;;;;;;-0.41;100.00;101023.47;5016675;28;20359;-89
2023/12/04 03:12:05;;;;;;;19.20;7.82;;;;;;;-0.54;100.00;100988.19;4976432;28;20362;-90
2023/12/04 03:14:49;;;;;;;21.58;9.38;;;;;;;-0.41;100.00;101005.63;5019073;28;20124;-90
2023/12/04 03:17:23;;;;;;;21.20;8.60;;;;;;;-0.57;100.00;100988.09;5036921;28;20033;-89
2023/12/04 03:19:57;;;;;;;21.48;8.98;;;;;;;-0.49;100.00;100994.28;5036573;28;20021;-89
2023/12/04 03:22:28;;;;;;;18.58;7.10;;;;;;;-0.52;100.00;100984.88;5035980;28;20029;-89
2023/12/04 03:25:03;;;;;;;18.65;7.82;;;;;;;-0.52;100.00;100977.22;5035607;28;20021;-89
2023/12/04 03:27:38;;;;;;;18.48;7.05;;;;;;;-0.39;100.00;100986.13;5035243;28;20488;-90
2023/12/04 03:30:04;;;;;;;17.27;6.78;;;;;;;-0.49;100.00;100971.34;5035370;28;20040;-89
2023/12/04 03:32:38;;;;;;;16.77;6.40;;;;;;;-0.52;100.00;100961.94;5035482;28;20383;-90
2023/12/04 03:35:10;;;;;;;16.67;6.75;;;;;;;-0.57;100.00;100950.72;5035607;28;20029;-89
2023/12/04 03:37:56;;;;;;;;;;;;;;;;;;;;;
2023/12/04 03:40:22;;;;;;;15.77;6.13;;;;;;;-0.53;100.00;100944.88;5029477;28;20045;-89
2023/12/04 03:42:47;;;;;;;16.85;6.25;;;;;;;-0.56;100.00;100942.22;5035157;28;20141;-89
2023/12/04 03:45:24;;;;;;;17.20;6.68;;;;;;;-0.53;100.00;100944.03;5035915;28;20027;-90
2023/12/04 03:47:58;;;;;;;16.88;6.50;;;;;;;-0.51;100.00;100938.16;5036031;28;20474;-89
2023/12/04 03:50:39;;;;;;;14.52;5.88;;;;;;;-0.58;100.00;100920.94;5037195;28;20026;-90
2023/12/04 03:53:16;;;;;;;17.80;6.65;;;;;;;-0.50;100.00;100932.25;5036134;28;20025;-88
2023/12/04 03:55:50;;;;;;;17.48;7.00;;;;;;;-0.51;100.00;100934.75;5035800;28;20036;-89
2023/12/04 03:58:24;;;;;;;16.42;6.13;;;;;;;-0.60;100.00;100921.69;5035974;28;20121;-88
2023/12/04 04:01:19;;;;;;;17.73;7.43;;;;;;;-0.61;100.00;100913.19;5057591;23;20037;-87
2023/12/04 04:03:45;;;;;;;18.10;7.43;;;;;;;-0.52;100.00;100910.09;4917228;29;20110;-89
2023/12/04 04:06:11;;;;;;;19.83;7.70;;;;;;;-0.53;100.00;100928.75;4917825;29;20060;-86
2023/12/04 04:08:42;;;;;;;17.30;6.85;;;;;;;-0.36;100.00;100919.91;4977103;28;20357;-89
2023/12/04 04:11:08;;;;;;;19.27;7.90;;;;;;;-0.54;100.00;100927.84;4977042;28;20118;-90
2023/12/04 04:13:33;;;;;;;19.20;7.65;;;;;;;-0.60;100.00;100912.38;4976254;28;20231;-89
2023/12/04 04:16:01;;;;;;;21.10;8.50;;;;;;;-0.53;100.00;100903.25;4977114;28;20078;-89
2023/12/04 04:18:35;;;;;;;20.77;8.70;;;;;;;-0.63;100.00;100902.09;4976519;28;20038;-90
2023/12/04 04:21:09;;;;;;;19.17;7.82;;;;;;;-0.65;100.00;100896.06;4976012;28;20082;-89
2023/12/04 04:23:42;;;;;;;17.95;7.32;;;;;;;-0.59;100.00;100901.38;4975055;28;20097;-89
2023/12/04 04:26:07;;;;;;;19.50;7.95;;;;;;;-0.58;100.00;100910.75;4976050;28;20022;-89
2023/12/04 04:28:48;;;;;;;18.85;8.07;;;;;;;-0.55;100.00;100897.22;4980498;28;20364;-90
2023/12/04 04:31:16;;;;;;;19.52;8.07;;;;;;;-0.52;100.00;100903.28;4995025;28;20058;-90
2023/12/04 04:33:41;;;;;;;20.17;8.43;;;;;;;-0.30;100.00;100908.19;4994861;28;20073;-90
2023/12/04 04:36:21;;;;;;;19.55;8.27;;;;;;;-0.49;100.00;100910.16;4994865;28;20027;-90
2023/12/04 04:38:52;;;;;;;19.42;8.25;;;;;;;-0.65;100.00;100880.78;4994665;28;20468;-90
2023/12/04 04:41:26;;;;;;;19.63;8.20;;;;;;;-0.59;100.00;100885.19;4994877;28;20395;-90
2023/12/04 04:43:52;;;;;;;19.15;8.02;;;;;;;-0.61;100.00;100869.88;4995127;28;20110;-89
2023/12/04 04:46:29;;;;;;;19.10;7.80;;;;;;;-0.68;100.00;100862.84;4995098;28;20065;-89
2023/12/04 04:48:54;;;;;;;;;;;;;;;-0.48;100.00;100892.38;4995233;28;20486;-90
2023/12/04 04:51:49;;;;;;;19.83;8.13;;;;;;;-0.49;100.00;100887.19;4994985;28;20004;-90
2023/12/04 04:54:14;;;;;;;19.42;8.05;;;;;;;-0.64;100.00;100878.28;4994241;28;20069;-90
2023/12/04 04:57:05;;;;;;;17.92;7.25;;;;;;;-0.52;100.00;100894.78;5060324;23;20509;-89
2023/12/04 04:59:46;;;;;;;18.92;7.18;;;;;;;-0.68;100.00;100868.81;5034215;28;20032;-89
2023/12/04 05:02:11;;;;;;;17.88;7.20;;;;;;;-0.54;100.00;100884.53;5033597;28;20471;-90
2023/12/04 05:05:07;;;;;;;18.05;7.40;;;;;;;-0.52;100.00;100893.09;5034027;28;20030;-89
2023/12/04 05:07:32;;;;;;;;;;;;;;;-0.50;100.00;100893.13;5033618;28;20120;-89
2023/12/04 05:10:04;;;;;;;17.93;6.93;;;;;;;-0.56;100.00;100867.44;5033724;28;19952;-90
2023/12/04 05:12:29;;;;;;;17.85;7.30;;;;;;;-0.57;100.00;100868.28;5034183;28;20112;-90
2023/12/04 05:15:14;;;;;;;18.52;7.32;;;;;;;-0.51;100.00;100887.16;5033629;28;20064;-90
2023/12/04 05:17:53;;;;;;;16.52;6.47;;;;;;;-0.59;100.00;100873.34;5034180;28;20087;-89
2023/12/04 05:20:37;;;;;;;17.90;7.40;;;;;;;-0.51;100.00;100876.13;5033684;28;20087;-90
2023/12/04 05:23:15;;;;;;;18.73;7.20;;;;;;;-0.50;100.00;100871.06;5034422;28;20020;-89
2023/12/04 05:25:43;;;;;;;18.38;7.28;;;;;;;-0.61;100.00;100854.56;5053419;28;20025;-88
2023/12/04 05:28:15;;;;;;;17.05;6.93;;;;;;;-0.55;100.00;100859.00;5053434;28;20025;-88
2023/12/04 05:30:59;;;;;;;17.88;7.25;;;;;;;-0.57;100.00;100850.41;5053645;28;20433;-87
2023/12/04 05:33:50;;;;;;;16.90;6.57;;;;;;;-0.69;100.00;100826.28;5053248;28;20075;-86
2023/12/04 05:36:37;;;;;;;18.17;7.43;;;;;;;-0.42;100.00;100850.91;5057899;28;20029;-90
2023/12/04 05:39:11;;;;;;;18.90;8.25;;;;;;;-0.54;100.00;100841.19;5058991;28;20061;-89
2023/12/04 05:41:44;;;;;;;19.40;8.23;;;;;;;-0.62;100.00;100828.19;5057741;28;20381;-88
2023/12/04 05:44:18;;;;;;;20.23;8.60;;;;;;;-0.68;100.00;100820.38;5058665;28;20029;-89
2023/12/04 05:46:45;;;;;;;20.08;8.82;;;;;;;-0.68;100.00;100815.28;5043685;28;20032;-89
2023/12/04 05:49:20;;;;;;;18.65;7.85;;;;;;;-0.69;100.00;100815.25;5028342;23;20058;-89
2023/12/04 05:51:48;;;;;;;18.65;8.00;;;;;;;-0.58;100.00;100834.28;4999140;28;20022;-88
2023/12/04 05:54:20;;;;;;;18.63;7.80;;;;;;;-0.55;100.00;100839.44;4999208;28;20026;-90
2023/12/04 05:56:54;;;;;;;16.40;6.68;;;;;;;-0.65;100.00;100837.44;4998685;28;20101;-90
2023/12/04 05:59:19;;;;;;;16.02;6.50;;;;;;;-0.52;100.00;100844.66;4998868;28;20081;-90
2023/12/04 06:01:50;;;;;;;16.08;6.22;;;;;;;-0.62;100.00;100824.78;4999398;28;20026;-90
2023/12/04 06:04:31;;;;;;;15.45;6.28;;;;;;;-0.62;100.00;100820.53;4998174;28;20037;-90
2023/12/04 06:10:37;;;;;;;18.10;7.28;;;;;;;-0.66;100.00;100797.47;4899233;29;20040;-89
2023/12/04 06:13:04;;;;;;;17.35;6.95;;;;;;;-0.55;100.00;100811.41;4897124;29;20044;-88
2023/12/04 06:15:34;;;;;;;19.10;8.07;;;;;;;-0.57;100.00;100800.31;4950947;29;20032;-88
2023/12/04 06:18:09;;;;;;;18.27;7.72;;;;;;;-0.54;100.00;100813.13;4956448;29;20035;-89
2023/12/04 06:20:34;;;;;;;17.65;7.13;;;;;;;-0.52;100.00;100800.44;4970395;28;20045;-90
2023/12/04 06:23:15;;;;;;;17.63;7.22;;;;;;;-0.58;100.00;100796.03;5016147;28;20510;-89
2023/12/04 06:25:41;;;;;;;16.77;6.80;;;;;;;-0.52;100.00;100786.00;5016179;28;20053;-89
2023/12/04 06:28:18;;;;;;;17.80;7.15;;;;;;;-0.59;100.00;100770.47;5014520;28;20030;-89
2023/12/04 06:30:59;;;;;;;17.08;7.07;;;;;;;-0.55;100.00;100779.97;5015894;28;20446;-89
2023/12/04 06:33:24;;;;;;;17.48;7.10;;;;;;;-0.53;100.00;100781.72;5016813;28;20029;-89
2023/12/04 06:36:05;;;;;;;16.38;6.75;;;;;;;-0.64;100.00;100758.47;5007096;28;20394;-89
2023/12/04 06:38:35;;;;;;;15.40;6.60;;;;;;;-0.51;100.00;100759.69;5015406;28;20110;-89
2023/12/04 06:41:08;;;;;;;18.13;7.30;;;;;;;-0.63;100.00;100731.28;5016986;28;20470;-90
2023/12/04 06:43:33;;;;;;;16.92;6.75;;;;;;;-0.48;100.00;100746.16;5015508;28;20105;-89
2023/12/04 06:45:59;;;;;;;17.08;7.35;;;;;;;-0.65;100.00;100720.19;5014918;28;20105;-89
2023/12/04 06:48:42;;;;;;;16.90;7.00;;;;;;;-0.68;100.00;100715.88;5003258;28;20096;-90
2023/12/04 06:51:08;;;;;;;15.45;6.30;;;;;;;-0.61;100.00;100719.47;4996971;28;20073;-88
2023/12/04 06:53:36;;;;;;;14.55;5.78;;;;;;;-0.66;100.00;100716.78;4996481;28;20050;-89
2023/12/04 06:56:10;;;;;;;15.70;6.38;;;;;;;-0.60;100.00;100728.84;4996523;28;20031;-89
2023/12/04 06:58:39;;;;;;;17.45;7.40;;;;;;;-0.40;100.00;100723.44;4995939;28;20118;-87
2023/12/04 07:01:07;;;;;;;16.75;6.40;;;;;;;-0.56;100.00;100730.63;4996494;28;20054;-91
2023/12/04 07:03:35;;;;;;;14.93;6.07;;;;;;;-0.51;100.00;100756.28;4996336;28;20097;-90
2023/12/04 07:06:14;;;;;;;14.02;5.97;;;;;;;-0.60;100.00;100725.41;4996691;28;20030;-90
2023/12/04 07:08:39;;;;;;;14.10;6.00;;;;;;;-0.55;100.00;100737.47;4996389;28;20018;-90
2023/12/04 07:11:22;;;;;;;13.95;5.60;;;;;;;-0.51;100.00;100741.84;5012963;28;20076;-91
2023/12/04 07:13:53;;;;;;;13.10;5.50;;;;;;;-0.52;100.00;100727.38;5016012;28;20090;-89
2023/12/04 07:16:18;;;;;;;13.13;5.50;;;;;;;-0.51;100.00;100718.91;5018045;28;20394;-91
2023/12/04 07:18:43;;;;;;;14.18;6.20;;;;;;;-0.53;100.00;100705.25;5016285;28;20057;-93
2023/12/04 07:21:15;;;;;;;14.65;6.05;;;;;;;-0.42;100.00;100737.81;5016049;28;20377;-92
2023/12/04 07:23:46;;;;;;;13.98;5.95;;;;;;;-0.39;100.00;100748.09;5015922;28;20032;-91
2023/12/04 07:26:12;;;;;;;14.82;6.05;;;;;;;-0.56;100.00;100725.53;5015175;28;20475;-91
2023/12/04 07:28:44;;;;;;;14.60;5.57;;;;;;;-0.60;100.00;100731.38;5015676;28;20089;-91
2023/12/04 07:31:12;;;;;;;12.88;5.60;;;;;;;-0.47;100.00;100740.25;5016080;28;20025;-89
2023/12/04 07:33:38;;;;;;;13.52;5.72;;;;;;;-0.55;100.00;100716.22;5014363;28;20037;-90
2023/12/04 07:36:09;;;;;;;13.57;5.63;;;;;;;-0.58;100.00;100718.69;5007902;28;20038;-89
2023/12/04 07:38:55;;;;;;;14.10;5.82;;;;;;;-0.60;100.00;100716.09;5015209;28;20038;-88
2023/12/04 07:41:39;;;;;;;16.50;6.60;;;;;;;-0.49;100.00;100724.91;5014806;28;20026;-89
2023/12/04 07:44:05;;;;;;;13.25;5.45;;;;;;;-0.56;100.00;100723.00;5015761;28;20052;-89
2023/12/04 07:46:55;;;;;;;14.43;6.03;;;;;;;-0.39;100.00;100743.84;5015323;28;20663;-89
2023/12/04 07:50:26;;;;;;;14.02;5.80;;;;;;;-0.31;100.00;100746.63;5013451;28;20038;-89
2023/12/04 07:52:54;;;;;;;15.85;6.15;;;;;;;-0.49;100.00;100722.34;5014780;28;20112;-89
2023/12/04 07:58:08;;;;;;;14.05;5.88;;;;;;;-0.44;100.00;100730.13;5029326;23;20057;-88
2023/12/04 08:00:45;;;;;;;14.73;6.03;;;;;;;-0.37;100.00;100701.41;5014761;28;20018;-88
2023/12/04 08:03:13;;;;;;;15.75;6.60;;;;;;;-0.49;100.00;100707.06;5014578;28;20104;-89
2023/12/04 08:05:44;;;;;;;15.27;6.78;;;;;;;-0.50;100.00;100712.97;4995374;28;20045;-87
2023/12/04 08:08:15;;;;;;;16.75;6.95;;;;;;;-0.44;99.20;100702.09;4994404;28;20043;-85
2023/12/04 08:10:40;;;;;;;15.43;6.20;;;;;;;-0.35;100.00;100707.44;4995181;28;20105;-86
2023/12/04 08:13:09;;;;;;;14.48;6.32;;;;;;;-0.28;100.00;100715.25;4996372;28;20065;-84
2023/12/04 08:15:46;;;;;;;16.05;6.68;;;;;;;-0.37;100.00;100705.66;5013372;28;20022;-86
2023/12/04 08:18:21;;;;;;;14.73;6.20;;;;;;;-0.52;99.25;100672.97;5016882;28;20033;-86
2023/12/04 08:21:09;;;;;;;14.95;6.30;;;;;;;-0.31;99.12;100705.81;5033462;28;20497;-93
2023/12/04 08:23:46;;;;;;;16.02;6.70;;;;;;;-0.42;98.19;100689.38;5016226;28;20025;-86
2023/12/04 08:26:24;;;;;;;14.45;6.10;;;;;;;-0.42;100.00;100697.00;5033718;28;20017;-87
2023/12/04 08:29:07;;;;;;;14.90;5.85;;;;;;;-0.36;98.81;100700.59;5033741;28;20021;-86
2023/12/04 08:31:39;;;;;;;15.68;6.28;;;;;;;-0.33;99.44;100703.25;5033189;28;20033;-86
2023/12/04 08:34:10;;;;;;;14.57;6.03;;;;;;;-0.45;99.46;100672.31;5032523;28;20025;-86
2023/12/04 08:36:41;;;;;;;13.93;5.75;;;;;;;-0.46;100.00;100673.13;5031064;28;20034;-86
2023/12/04 08:39:07;;;;;;;14.35;5.68;;;;;;;-0.41;99.88;100676.69;5032358;28;20413;-86
2023/12/04 08:41:32;;;;;;;14.80;5.95;;;;;;;-0.39;99.34;100669.06;5032194;28;20025;-86
2023/12/04 08:44:09;;;;;;;15.43;6.20;;;;;;;-0.27;98.54;100674.50;5023322;28;20052;-85
2023/12/04 08:46:34;;;;;;;15.93;6.60;;;;;;;-0.26;98.66;100675.34;5030142;28;20079;-85
2023/12/04 08:49:04;;;;;;;14.52;6.22;;;;;;;-0.31;98.82;100665.03;5032042;28;20033;-85
2023/12/04 08:51:32;;;;;;;15.38;6.20;;;;;;;-0.35;97.40;100658.97;5031887;28;20032;-85
2023/12/04 08:53:57;;;;;;;13.68;6.15;;;;;;;-0.35;98.83;100658.97;5032242;28;20020;-86
2023/12/04 08:56:23;;;;;;;14.25;6.10;;;;;;;-0.40;97.89;100641.81;5037556;28;20409;-86
2023/12/04 08:58:50;;;;;;;14.95;5.90;;;;;;;-0.22;99.50;100659.31;5050595;28;20044;-85
2023/12/04 09:01:18;;;;;;;;;;;;;;;-0.24;97.74;100654.16;5052092;28;20029;-86
2023/12/04 09:03:46;;;;;;;15.65;6.32;;;;;;;-0.28;97.70;100648.97;5028483;28;20012;-86
2023/12/04 09:06:12;;;;;;;14.75;5.70;;;;;;;-0.29;98.88;100640.41;5032114;28;20022;-86
2023/12/04 09:08:49;;;;;;;13.27;5.85;;;;;;;-0.32;98.52;100632.69;5049029;28;20059;-85
2023/12/04 09:11:17;;;;;;;12.13;5.53;;;;;;;-0.35;98.54;100638.56;5050769;28;20029;-86
2023/12/04 09:13:45;;;;;;;15.70;5.95;;;;;;;-0.27;98.64;100640.44;5035592;28;20163;-86
2023/12/04 09:16:13;;;;;;;13.80;5.93;;;;;;;-0.32;98.75;100632.69;5046405;28;20444;-86
2023/12/04 09:18:46;;;;;;;13.57;5.50;;;;;;;-0.38;98.51;100622.34;5037142;28;20027;-86
2023/12/04 09:21:17;;;;;;;13.30;5.60;;;;;;;-0.32;98.09;100631.00;5032980;28;20025;-86
2023/12/04 09:24:03;;;;;;;13.77;6.05;;;;;;;-0.02;98.76;100652.16;5033246;28;20018;-88
2023/12/04 09:26:33;;;;;;;14.23;6.00;;;;;;;-0.16;98.22;100628.84;5046124;28;20034;-86
2023/12/04 09:29:05;;;;;;;15.10;6.13;;;;;;;-0.24;98.44;100620.13;5051418;28;20028;-87
2023/12/04 09:31:31;;;;;;;14.52;6.25;;;;;;;-0.14;97.42;100627.19;5029621;28;20057;-87
2023/12/04 09:34:00;;;;;;;14.48;6.18;;;;;;;-0.06;98.41;100642.69;5013631;28;20044;-82
2023/12/04 09:36:34;;;;;;;15.63;6.78;;;;;;;0.00;97.63;100640.31;5012517;28;20030;-82
2023/12/04 09:39:00;;;;;;;15.70;6.80;;;;;;;-0.13;96.34;100634.03;5012536;28;20022;-82
2023/12/04 09:41:42;;;;;;;14.95;6.65;;;;;;;-0.17;96.64;100622.88;5011897;28;20030;-85
2023/12/04 09:44:17;;;;;;;15.88;6.65;;;;;;;-0.02;95.89;100637.69;5030921;28;20034;-85
2023/12/04 09:46:48;;;;;;;14.70;6.22;;;;;;;0.00;97.60;100645.41;5031576;28;20475;-85
2023/12/04 09:49:14;;;;;;;15.40;6.22;;;;;;;0.03;96.56;100644.63;5032378;28;20486;-86
2023/12/04 09:51:47;;;;;;;13.38;6.00;;;;;;;-0.10;97.14;100610.25;5031937;28;20033;-85
2023/12/04 09:54:19;;;;;;;15.50;6.60;;;;;;;0.11;95.46;100631.19;5031893;28;20084;-83
2023/12/04 09:56:45;;;;;;;15.40;6.63;;;;;;;0.04;95.39;100631.03;5032227;28;20147;-84
2023/12/04 09:59:16;;;;;;;13.77;6.18;;;;;;;0.12;96.33;100634.63;5032215;28;20261;-84
2023/12/04 10:01:48;;;;;;;12.48;5.78;;;;;;;0.15;96.97;100635.56;5031225;28;20100;-84
2023/12/04 10:04:29;;;;;;;15.13;6.35;;;;;;;0.20;96.50;100632.28;5022936;23;20082;-83
2023/12/04 10:06:57;;;;;;;15.45;6.70;;;;;;;0.16;95.84;100633.88;4990364;28;20026;-84
2023/12/04 10:09:28;;;;;;;14.82;6.25;;;;;;;0.24;96.79;100626.38;4991743;28;20018;-85
2023/12/04 10:12:03;;;;;;;15.77;6.68;;;;;;;0.22;96.01;100623.81;4994464;28;20042;-86
2023/12/04 10:14:28;;;;;;;15.10;6.45;;;;;;;0.26;96.74;100629.84;4992786;28;20117;-82
2023/12/04 10:16:54;;;;;;;13.68;5.50;;;;;;;0.24;97.70;100614.50;4992285;28;20113;-85
2023/12/04 10:19:27;;;;;;;13.80;5.90;;;;;;;0.28;97.35;100621.38;4993305;28;20054;-83
2023/12/04 10:21:55;;;;;;;12.80;5.63;;;;;;;0.24;95.55;100616.19;4993543;28;20045;-82
2023/12/04 10:24:33;;;;;;;13.30;6.07;;;;;;;0.26;94.95;100610.31;4997538;28;20022;-83
2023/12/04 10:27:01;;;;;;;13.88;6.45;;;;;;;0.27;95.96;100608.59;4996001;28;20062;-82
2023/12/04 10:29:28;;;;;;;15.60;6.47;;;;;;;0.32;95.53;100608.69;4996280;28;20033;-83
2023/12/04 10:31:55;;;;;;;15.73;6.70;;;;;;;0.33;96.32;100593.44;4997734;28;20041;-86
2023/12/04 10:34:21;;;;;;;16.15;7.00;;;;;;;0.33;94.94;100575.56;4996678;28;20106;-83
2023/12/04 10:36:46;;;;;;;15.70;7.00;;;;;;;0.35;95.69;100578.16;4995617;28;20109;-82
2023/12/04 10:39:18;;;;;;;15.23;6.53;;;;;;;0.30;96.56;100561.03;4995832;28;20072;-84
2023/12/04 10:41:44;;;;;;;17.02;7.38;;;;;;;0.47;97.32;100565.66;4995959;28;20054;-84
2023/12/04 10:44:32;;;;;;;16.55;7.28;;;;;;;0.47;96.01;100558.00;4991129;28;20491;-83
2023/12/04 10:47:16;;;;;;;18.42;8.15;;;;;;;0.57;96.11;100546.25;4996005;28;20030;-84
2023/12/04 10:50:09;;;;;;;18.90;8.32;;;;;;;0.49;94.93;100558.00;4995651;28;20036;-83
2023/12/04 10:52:55;;;;;;;18.75;8.73;;;;;;;0.42;94.38;100529.81;4995272;28;20077;-84
2023/12/04 10:55:20;;;;;;;18.08;8.20;;;;;;;0.54;94.33;100541.13;4998751;23;20046;-83
2023/12/04 10:57:50;;;;;;;18.98;8.07;;;;;;;0.52;95.74;100537.66;5013287;28;20034;-84
2023/12/04 11:01:01;;;;;;;16.67;7.32;;;;;;;0.56;95.54;100531.78;5138521;23;20138;-84
2023/12/04 11:06:48;;;;;;;18.83;8.90;;;;;;;0.63;94.85;100523.41;4963681;23;20082;-84
2023/12/04 11:09:14;;;;;;;17.38;7.88;;;;;;;0.60;95.58;100508.91;5010040;23;20054;-82
2023/12/04 11:11:46;;;;;;;17.85;8.50;;;;;;;0.75;95.10;100517.69;4974029;28;20042;-82
2023/12/04 11:14:18;;;;;;;18.27;8.48;;;;;;;0.72;94.64;100505.72;4974575;28;20117;-82
2023/12/04 11:16:48;;;;;;;18.83;8.40;;;;;;;0.80;94.77;100505.88;4968695;28;20027;-82
2023/12/04 11:19:32;;;;;;;18.55;8.38;;;;;;;0.84;95.17;100504.22;4974790;28;20031;-83
2023/12/04 11:21:59;;;;;;;19.00;8.35;;;;;;;0.95;94.90;100497.63;4973223;28;20038;-82
2023/12/04 11:24:27;;;;;;;18.33;8.48;;;;;;;0.91;94.46;100506.06;4973169;28;20031;-82
2023/12/04 11:26:53;;;;;;;17.70;8.20;;;;;;;0.89;94.89;100497.53;4973705;28;20029;-83
2023/12/04 11:29:19;;;;;;;19.02;8.40;;;;;;;0.97;95.26;100503.63;4974841;28;20027;-83
2023/12/04 11:31:51;;;;;;;18.83;8.52;;;;;;;0.84;95.04;100486.34;4972612;28;20043;-83
2023/12/04 11:34:36;;;;;;;18.13;8.65;;;;;;;0.84;95.07;100476.13;4974699;28;20395;-83
2023/12/04 11:37:08;;;;;;;18.30;8.35;;;;;;;0.82;95.05;100467.56;4947877;28;20540;-82
2023/12/04 11:39:37;;;;;;;18.88;8.15;;;;;;;0.83;95.22;100464.19;4953588;28;20043;-82
2023/12/04 11:42:49;;;;;;;18.20;8.27;;;;;;;1.00;95.26;100479.81;4956033;28;20094;-82
2023/12/04 11:48:16;;;;;;;18.23;7.70;;;;;;;0.75;95.29;100441.03;4955302;28;20106;-82
2023/12/04 11:53:57;;;;;;;16.52;7.53;;;;;;;0.94;96.60;100464.41;4905617;29;20036;-82
2023/12/04 11:57:29;;;;;;;17.33;7.65;;;;;;;0.80;95.93;100434.34;4955136;28;20043;-83
2023/12/04 12:00:24;;;;;;;16.55;7.10;;;;;;;0.94;96.17;100446.50;4955907;28;20110;-82
2023/12/04 12:02:52;;;;;;;17.27;7.72;;;;;;;0.89;96.67;100443.88;4955915;28;20039;-82
2023/12/04 12:05:50;;;;;;;16.65;7.50;;;;;;;0.81;98.13;100435.19;4956036;28;20098;-82
2023/12/04 12:08:35;;;;;;;18.35;8.20;;;;;;;0.89;96.95;100436.22;4954282;28;20134;-82
2023/12/04 12:11:09;;;;;;;17.73;7.82;;;;;;;0.64;98.41;100407.66;4955259;28;20035;-82
2023/12/04 12:13:53;;;;;;;18.23;7.97;;;;;;;0.79;98.46;100424.94;4955823;28;20070;-82
2023/12/04 12:16:18;;;;;;;16.98;7.65;;;;;;;0.79;98.31;100412.19;4954220;28;20023;-82
2023/12/04 12:18:44;;;;;;;17.25;7.72;;;;;;;0.80;98.50;100406.25;4955510;28;20034;-82